createdAt,value
2019-02-25T00:00:10.056Z,11.70
2019-02-25T00:01:10.293Z,11.50
2019-02-25T00:03:14.467Z,10.20
2019-02-25T00:04:14.703Z,10.40
2019-02-25T00:06:18.869Z,9.90
2019-02-25T00:07:19.105Z,10.30
2019-02-25T00:09:23.275Z,9.90
2019-02-25T00:10:23.510Z,9.50
2019-02-25T00:12:27.658Z,8.60
2019-02-25T00:13:27.899Z,9.10
2019-02-25T00:15:32.063Z,9.70
2019-02-25T00:16:32.301Z,9.60
2019-02-25T00:18:25.401Z,10.60
2019-02-25T00:19:25.637Z,10.50
2019-02-25T00:21:29.809Z,10.30
2019-02-25T00:22:30.048Z,12.20
2019-02-25T00:24:34.220Z,8.80
2019-02-25T00:25:34.454Z,8.40
2019-02-25T00:27:38.613Z,9.00
2019-02-25T00:28:38.832Z,8.20
2019-02-25T00:30:42.999Z,8.10
2019-02-25T00:31:43.237Z,7.60
2019-02-25T00:33:47.382Z,7.10
2019-02-25T00:34:47.619Z,7.90
2019-02-25T00:36:51.788Z,6.90
2019-02-25T00:37:52.026Z,7.10
2019-02-25T00:39:56.194Z,7.50
2019-02-25T00:40:56.430Z,7.40
2019-02-25T00:43:00.591Z,6.80
2019-02-25T00:44:00.824Z,6.90
2019-02-25T00:46:05.005Z,7.50
2019-02-25T00:47:05.239Z,7.10
2019-02-25T00:49:09.385Z,6.70
2019-02-25T00:50:09.624Z,6.60
2019-02-25T00:52:13.792Z,7.00
2019-02-25T00:53:14.032Z,6.40
2019-02-25T00:55:18.197Z,7.60
2019-02-25T00:56:18.435Z,7.20
2019-02-25T00:58:11.510Z,7.50
2019-02-25T00:59:11.747Z,7.40
2019-02-25T01:01:15.919Z,7.90
2019-02-25T01:02:16.158Z,7.60
2019-02-25T01:04:20.304Z,7.90
2019-02-25T01:05:20.542Z,7.50
2019-02-25T01:07:24.709Z,7.30
2019-02-25T01:08:24.946Z,7.90
2019-02-25T01:10:29.114Z,7.50
2019-02-25T01:11:29.404Z,7.30
2019-02-25T01:13:33.499Z,7.40
2019-02-25T01:14:33.736Z,7.60
2019-02-25T01:16:37.899Z,8.10
2019-02-25T01:17:38.139Z,7.20
2019-02-25T01:19:42.286Z,7.90
2019-02-25T01:20:42.530Z,7.30
2019-02-25T01:22:46.708Z,7.80
2019-02-25T01:23:48.901Z,7.70
2019-02-25T01:25:51.112Z,7.50
2019-02-25T01:26:51.347Z,7.10
2019-02-25T01:28:55.494Z,8.00
2019-02-25T01:29:55.731Z,7.10
2019-02-25T01:31:59.903Z,8.30
2019-02-25T01:33:00.139Z,7.70
2019-02-25T01:35:04.283Z,7.20
2019-02-25T01:36:04.520Z,7.60
2019-02-25T01:37:57.615Z,7.30
2019-02-25T01:38:57.855Z,7.40
2019-02-25T01:41:02.016Z,7.90
2019-02-25T01:42:02.259Z,7.90
2019-02-25T01:44:07.407Z,6.90
2019-02-25T01:45:07.652Z,7.20
2019-02-25T01:47:11.816Z,7.60
2019-02-25T01:48:12.051Z,8.00
2019-02-25T01:50:16.208Z,7.60
2019-02-25T01:51:16.445Z,8.20
2019-02-25T01:53:20.613Z,8.30
2019-02-25T01:54:20.847Z,8.00
2019-02-25T01:56:25.013Z,7.80
2019-02-25T01:57:25.249Z,8.10
2019-02-25T01:59:29.395Z,8.00
2019-02-25T02:00:29.630Z,7.90
2019-02-25T02:02:33.803Z,8.60
2019-02-25T02:03:34.039Z,7.80
2019-02-25T02:05:38.186Z,7.80
2019-02-25T02:06:38.424Z,8.20
2019-02-25T02:08:42.593Z,7.10
2019-02-25T02:09:42.830Z,8.60
2019-02-25T02:11:46.999Z,8.40
2019-02-25T02:12:47.235Z,8.50
2019-02-25T02:14:51.378Z,8.80
2019-02-25T02:15:51.615Z,7.50
2019-02-25T02:17:44.710Z,8.20
2019-02-25T02:18:44.947Z,8.00
2019-02-25T02:20:49.092Z,7.50
2019-02-25T02:21:49.326Z,7.90
2019-02-25T02:23:53.490Z,8.30
2019-02-25T02:24:53.731Z,8.50
2019-02-25T02:26:57.897Z,7.90
2019-02-25T02:27:58.133Z,8.30
2019-02-25T02:30:02.281Z,7.50
2019-02-25T02:31:02.512Z,7.70
2019-02-25T02:33:06.681Z,7.10
2019-02-25T02:34:06.916Z,7.70
2019-02-25T02:36:11.823Z,7.50
2019-02-25T02:37:11.318Z,7.40
2019-02-25T02:39:15.487Z,7.10
2019-02-25T02:40:15.750Z,7.40
2019-02-25T02:42:19.895Z,6.80
2019-02-25T02:43:20.125Z,7.00
2019-02-25T02:45:24.271Z,6.40
2019-02-25T02:46:24.515Z,6.80
2019-02-25T02:48:17.609Z,7.50
2019-02-25T02:49:17.843Z,6.90
2019-02-25T02:51:21.989Z,7.10
2019-02-25T02:52:22.226Z,6.90
2019-02-25T02:54:26.400Z,6.90
2019-02-25T02:55:26.637Z,6.50
2019-02-25T02:57:30.803Z,7.40
2019-02-25T02:58:31.037Z,6.80
2019-02-25T03:00:36.193Z,6.70
2019-02-25T03:01:36.430Z,6.90
2019-02-25T03:03:40.596Z,6.40
2019-02-25T03:04:40.836Z,6.90
2019-02-25T03:06:44.984Z,7.70
2019-02-25T03:07:45.217Z,6.60
2019-02-25T03:09:49.379Z,7.60
2019-02-25T03:10:49.615Z,7.50
2019-02-25T03:12:53.782Z,7.50
2019-02-25T03:13:54.025Z,6.50
2019-02-25T03:15:58.161Z,7.80
2019-02-25T03:16:58.398Z,7.20
2019-02-25T03:19:02.565Z,7.50
2019-02-25T03:20:02.804Z,7.20
2019-02-25T03:22:06.945Z,7.10
2019-02-25T03:23:07.181Z,7.10
2019-02-25T03:25:11.349Z,8.00
2019-02-25T03:26:11.582Z,7.70
2019-02-25T03:28:04.682Z,7.70
2019-02-25T03:29:04.915Z,7.60
2019-02-25T03:31:09.064Z,7.70
2019-02-25T03:32:09.297Z,7.40
2019-02-25T03:34:13.479Z,6.80
2019-02-25T03:35:13.700Z,6.30
2019-02-25T03:37:17.855Z,6.90
2019-02-25T03:38:18.088Z,7.20
2019-02-25T03:40:22.253Z,6.90
2019-02-25T03:41:22.488Z,7.40
2019-02-25T03:43:26.659Z,7.00
2019-02-25T03:44:26.895Z,6.90
2019-02-25T03:46:31.040Z,7.30
2019-02-25T03:47:31.277Z,6.60
2019-02-25T03:49:35.468Z,7.20
2019-02-25T03:50:35.692Z,6.80
2019-02-25T03:52:39.824Z,8.00
2019-02-25T03:53:40.063Z,7.40
2019-02-25T03:55:44.237Z,6.50
2019-02-25T03:56:44.464Z,6.90
2019-02-25T03:58:48.634Z,7.10
2019-02-25T03:59:48.870Z,7.50
2019-02-25T04:01:53.014Z,7.30
2019-02-25T04:02:53.251Z,7.70
2019-02-25T04:04:57.417Z,8.00
2019-02-25T04:05:57.652Z,6.90
2019-02-25T04:07:51.736Z,6.00
2019-02-25T04:08:51.970Z,6.40
2019-02-25T04:10:56.139Z,7.80
2019-02-25T04:11:56.373Z,7.20
2019-02-25T04:14:00.542Z,8.30
2019-02-25T04:15:00.776Z,8.20
2019-02-25T04:17:04.920Z,7.70
2019-02-25T04:18:05.154Z,7.40
2019-02-25T04:20:09.321Z,8.10
2019-02-25T04:21:09.559Z,7.20
2019-02-25T04:23:13.704Z,7.80
2019-02-25T04:24:13.938Z,7.80
2019-02-25T04:26:18.110Z,7.90
2019-02-25T04:27:18.347Z,8.30
2019-02-25T04:29:22.512Z,7.50
2019-02-25T04:30:22.750Z,7.60
2019-02-25T04:32:26.902Z,8.00
2019-02-25T04:33:27.128Z,8.50
2019-02-25T04:35:31.302Z,8.70
2019-02-25T04:36:31.531Z,7.70
2019-02-25T04:38:24.603Z,7.90
2019-02-25T04:39:24.839Z,7.40
2019-02-25T04:41:29.008Z,7.00
2019-02-25T04:42:29.245Z,7.50
2019-02-25T04:44:33.410Z,7.40
2019-02-25T04:45:33.650Z,6.50
2019-02-25T04:47:37.792Z,6.90
2019-02-25T04:48:38.030Z,7.30
2019-02-25T04:50:42.192Z,7.10
2019-02-25T04:51:42.434Z,8.60
2019-02-25T04:53:46.591Z,12.20
2019-02-25T04:54:46.809Z,12.60
2019-02-25T04:56:50.987Z,6.40
2019-02-25T04:57:51.220Z,6.80
2019-02-25T04:59:55.364Z,7.00
2019-02-25T05:00:55.600Z,6.10
2019-02-25T05:02:59.764Z,5.60
2019-02-25T05:04:00.001Z,6.10
2019-02-25T05:06:04.166Z,6.20
2019-02-25T05:07:04.395Z,6.60
2019-02-25T05:09:08.536Z,6.80
2019-02-25T05:10:08.773Z,6.20
2019-02-25T05:12:12.965Z,6.00
2019-02-25T05:13:13.210Z,6.80
2019-02-25T05:15:17.401Z,6.50
2019-02-25T05:16:17.637Z,7.10
2019-02-25T05:18:10.723Z,7.00
2019-02-25T05:19:10.961Z,7.00
2019-02-25T05:21:15.145Z,6.70
2019-02-25T05:22:15.376Z,6.70
2019-02-25T05:24:19.518Z,6.60
2019-02-25T05:25:19.756Z,7.00
2019-02-25T05:27:23.934Z,6.70
2019-02-25T05:28:24.177Z,6.50
2019-02-25T05:30:28.323Z,6.10
2019-02-25T05:31:28.565Z,6.00
2019-02-25T05:33:33.751Z,5.40
2019-02-25T05:34:33.993Z,5.30
2019-02-25T05:36:38.175Z,6.30
2019-02-25T05:37:38.414Z,6.10
2019-02-25T05:39:42.568Z,5.70
2019-02-25T05:40:42.814Z,6.20
2019-02-25T05:42:46.991Z,5.80
2019-02-25T05:43:47.227Z,5.60
2019-02-25T05:45:51.369Z,5.90
2019-02-25T05:46:51.615Z,5.60
2019-02-25T05:48:55.781Z,6.10
2019-02-25T05:49:56.023Z,5.80
2019-02-25T05:52:00.198Z,5.40
2019-02-25T05:53:00.440Z,5.40
2019-02-25T05:55:04.591Z,6.60
2019-02-25T05:56:04.826Z,6.20
2019-02-25T05:57:57.941Z,6.30
2019-02-25T05:58:58.175Z,6.40
2019-02-25T06:01:02.326Z,6.40
2019-02-25T06:02:02.566Z,6.00
2019-02-25T06:04:06.741Z,6.60
2019-02-25T06:05:06.983Z,5.80
2019-02-25T06:07:11.192Z,6.10
2019-02-25T06:08:11.419Z,12.80
2019-02-25T06:10:15.566Z,6.60
2019-02-25T06:11:15.805Z,6.60
2019-02-25T06:13:19.976Z,6.70
2019-02-25T06:14:20.222Z,6.00
2019-02-25T06:16:24.367Z,6.70
2019-02-25T06:17:24.656Z,6.70
2019-02-25T06:19:28.789Z,6.60
2019-02-25T06:20:29.022Z,7.00
2019-02-25T06:22:33.201Z,6.90
2019-02-25T06:23:33.446Z,7.30
2019-02-25T06:25:37.643Z,7.00
2019-02-25T06:26:38.712Z,8.20
2019-02-25T06:28:42.039Z,8.30
2019-02-25T06:29:42.275Z,8.80
2019-02-25T06:31:46.418Z,9.20
2019-02-25T06:32:46.652Z,10.60
2019-02-25T06:34:50.815Z,11.70
2019-02-25T06:35:51.051Z,9.50
2019-02-25T06:37:44.228Z,7.80
2019-02-25T06:38:44.385Z,7.80
2019-02-25T06:40:48.529Z,8.50
2019-02-25T06:41:48.774Z,7.80
2019-02-25T06:43:52.932Z,8.30
2019-02-25T06:44:53.169Z,7.50
2019-02-25T06:46:57.309Z,7.60
2019-02-25T06:47:57.550Z,6.80
2019-02-25T06:50:01.708Z,7.50
2019-02-25T06:51:01.945Z,7.30
2019-02-25T06:53:06.112Z,7.50
2019-02-25T06:54:06.355Z,7.80
2019-02-25T06:56:10.501Z,7.50
2019-02-25T06:57:10.733Z,7.00
2019-02-25T06:59:14.899Z,6.70
2019-02-25T07:00:15.133Z,6.80
2019-02-25T07:02:19.282Z,7.00
2019-02-25T07:03:19.518Z,7.30
2019-02-25T07:05:23.683Z,6.70
2019-02-25T07:06:23.915Z,7.00
2019-02-25T07:08:17.010Z,7.00
2019-02-25T07:09:17.259Z,7.20
2019-02-25T07:11:21.403Z,7.30
2019-02-25T07:12:21.642Z,7.20
2019-02-25T07:14:25.825Z,7.10
2019-02-25T07:15:26.067Z,7.30
2019-02-25T07:17:30.210Z,6.80
2019-02-25T07:18:30.455Z,7.10
2019-02-25T07:20:34.643Z,7.10
2019-02-25T07:21:34.881Z,7.30
2019-02-25T07:23:39.072Z,8.00
2019-02-25T07:24:39.314Z,7.80
2019-02-25T07:26:43.468Z,28.00
2019-02-25T07:27:43.707Z,14.60
2019-02-25T07:29:47.896Z,25.90
2019-02-25T07:30:48.141Z,25.10
2019-02-25T07:32:52.299Z,8.40
2019-02-25T07:33:52.539Z,8.40
2019-02-25T07:35:56.734Z,8.60
2019-02-25T07:36:56.983Z,8.30
2019-02-25T07:39:01.162Z,8.80
2019-02-25T07:40:01.406Z,8.20
2019-02-25T07:42:05.564Z,9.20
2019-02-25T07:43:05.805Z,8.90
2019-02-25T07:45:09.984Z,10.70
2019-02-25T07:46:10.233Z,11.30
2019-02-25T07:48:03.322Z,11.50
2019-02-25T07:49:03.567Z,11.70
2019-02-25T07:51:07.762Z,12.30
2019-02-25T07:52:08.008Z,12.70
2019-02-25T07:54:12.200Z,11.90
2019-02-25T07:55:12.446Z,11.90
2019-02-25T07:57:16.614Z,8.40
2019-02-25T07:58:16.860Z,8.20
2019-02-25T08:00:21.050Z,8.80
2019-02-25T08:01:21.295Z,7.90
2019-02-25T08:03:25.461Z,7.90
2019-02-25T08:04:25.709Z,8.10
2019-02-25T08:06:29.909Z,8.20
2019-02-25T08:07:30.155Z,8.20
2019-02-25T08:09:34.361Z,10.00
2019-02-25T08:10:34.611Z,25.40
2019-02-25T08:12:38.775Z,34.40
2019-02-25T08:13:39.027Z,22.70
2019-02-25T08:15:43.224Z,13.00
2019-02-25T08:16:43.469Z,11.40
2019-02-25T08:18:47.638Z,8.80
2019-02-25T08:19:47.887Z,8.20
2019-02-25T08:21:52.087Z,7.90
2019-02-25T08:22:52.334Z,8.60
2019-02-25T08:24:56.575Z,8.50
2019-02-25T08:25:56.824Z,7.60
2019-02-25T08:27:49.930Z,8.80
2019-02-25T08:28:50.179Z,9.60
2019-02-25T08:30:54.383Z,8.40
2019-02-25T08:31:54.631Z,7.90
2019-02-25T08:33:58.800Z,9.10
2019-02-25T08:34:59.062Z,8.60
2019-02-25T08:37:03.277Z,9.10
2019-02-25T08:38:03.527Z,8.40
2019-02-25T08:40:07.694Z,7.70
2019-02-25T08:41:07.943Z,7.80
2019-02-25T08:43:12.148Z,8.40
2019-02-25T08:44:12.395Z,9.80
2019-02-25T08:46:16.576Z,10.50
2019-02-25T08:47:16.826Z,11.70
2019-02-25T08:49:21.001Z,10.00
2019-02-25T08:50:21.249Z,10.60
2019-02-25T08:52:25.447Z,10.40
2019-02-25T08:53:25.696Z,9.50
2019-02-25T08:55:29.875Z,10.20
2019-02-25T08:56:30.124Z,10.90
2019-02-25T08:58:23.247Z,10.70
2019-02-25T08:59:23.507Z,11.00
2019-02-25T09:01:27.695Z,11.40
2019-02-25T09:02:27.948Z,10.90
2019-02-25T09:04:32.123Z,10.50
2019-02-25T09:05:32.373Z,10.30
2019-02-25T09:07:36.570Z,10.20
2019-02-25T09:08:36.826Z,9.70
2019-02-25T09:10:41.000Z,9.10
2019-02-25T09:11:41.255Z,9.50
2019-02-25T09:13:45.450Z,9.40
2019-02-25T09:14:45.702Z,9.20
2019-02-25T09:16:49.898Z,9.80
2019-02-25T09:17:50.148Z,10.10
2019-02-25T09:19:54.337Z,8.40
2019-02-25T09:20:54.591Z,7.80
2019-02-25T09:22:58.791Z,7.60
2019-02-25T09:23:59.045Z,6.70
2019-02-25T09:26:03.222Z,6.80
2019-02-25T09:27:03.472Z,6.80
2019-02-25T09:29:07.675Z,6.30
2019-02-25T09:30:07.929Z,5.60
2019-02-25T09:32:12.126Z,5.50
2019-02-25T09:33:12.381Z,5.40
2019-02-25T09:35:16.557Z,5.20
2019-02-25T09:36:16.809Z,5.80
2019-02-25T09:38:09.939Z,7.00
2019-02-25T09:39:10.195Z,6.10
2019-02-25T09:41:14.372Z,8.50
2019-02-25T09:42:14.625Z,7.40
2019-02-25T09:44:18.832Z,13.50
2019-02-25T09:45:19.087Z,9.80
2019-02-25T09:47:23.295Z,17.00
2019-02-25T09:48:23.552Z,16.40
2019-02-25T09:50:27.746Z,7.90
2019-02-25T09:51:27.991Z,9.40
2019-02-25T09:53:32.195Z,17.00
2019-02-25T09:54:32.447Z,18.30
2019-02-25T09:56:37.410Z,15.30
2019-02-25T09:57:36.888Z,13.70
2019-02-25T09:59:41.097Z,13.10
2019-02-25T10:00:41.352Z,11.80
2019-02-25T10:02:45.568Z,11.40
2019-02-25T10:03:45.821Z,11.00
2019-02-25T10:05:50.011Z,6.50
2019-02-25T10:06:50.264Z,5.80
2019-02-25T10:08:54.473Z,6.00
2019-02-25T10:09:54.732Z,5.70
2019-02-25T10:11:58.938Z,6.50
2019-02-25T10:12:59.199Z,5.60
2019-02-25T10:15:05.094Z,4.90
2019-02-25T10:16:03.640Z,5.00
2019-02-25T10:17:56.779Z,4.00
2019-02-25T10:18:57.033Z,3.70
2019-02-25T10:21:01.220Z,4.30
2019-02-25T10:22:01.476Z,4.40
2019-02-25T10:24:05.688Z,4.20
2019-02-25T10:25:05.944Z,4.50
2019-02-25T10:27:10.131Z,4.60
2019-02-25T10:28:10.389Z,4.70
2019-02-25T10:30:14.602Z,4.60
2019-02-25T10:31:15.368Z,4.30
2019-02-25T10:33:19.065Z,4.10
2019-02-25T10:34:19.326Z,3.80
2019-02-25T10:36:23.514Z,3.50
2019-02-25T10:37:23.773Z,3.80
2019-02-25T10:39:27.985Z,3.30
2019-02-25T10:40:28.242Z,3.00
2019-02-25T10:42:33.472Z,2.70
2019-02-25T10:43:34.553Z,2.70
2019-02-25T10:45:38.903Z,2.50
2019-02-25T10:46:39.029Z,2.50
2019-02-25T10:48:41.367Z,2.20
2019-02-25T10:49:41.625Z,2.50
2019-02-25T10:51:45.821Z,2.60
2019-02-25T10:52:47.644Z,2.40
2019-02-25T10:54:51.990Z,2.30
2019-02-25T10:55:50.872Z,2.30
2019-02-25T10:57:43.663Z,2.30
2019-02-25T10:58:43.920Z,2.50
2019-02-25T11:00:48.133Z,2.10
2019-02-25T11:01:48.391Z,2.60
2019-02-25T11:03:54.247Z,2.50
2019-02-25T11:04:53.572Z,2.10
2019-02-25T11:06:58.539Z,2.20
2019-02-25T11:07:57.310Z,2.10
2019-02-25T11:10:01.522Z,2.10
2019-02-25T11:11:01.779Z,2.20
2019-02-25T11:13:06.001Z,2.20
2019-02-25T11:14:07.257Z,2.10
2019-02-25T11:16:11.945Z,2.20
2019-02-25T11:17:10.701Z,2.10
2019-02-25T11:19:14.922Z,2.20
2019-02-25T11:20:15.175Z,2.00
2019-02-25T11:22:19.364Z,2.00
2019-02-25T11:23:21.525Z,2.00
2019-02-25T11:25:25.757Z,2.00
2019-02-25T11:26:26.119Z,2.00
2019-02-25T11:28:25.629Z,1.80
2019-02-25T11:29:17.490Z,1.70
2019-02-25T11:31:24.038Z,1.90
2019-02-25T11:32:23.784Z,1.90
2019-02-25T11:34:26.153Z,1.80
2019-02-25T11:35:26.414Z,1.50
2019-02-25T11:37:30.609Z,1.60
2019-02-25T11:38:34.290Z,1.80
2019-02-25T11:40:36.557Z,1.50
2019-02-25T11:41:37.121Z,1.70
2019-02-25T11:43:39.551Z,1.50
2019-02-25T11:44:39.809Z,1.30
2019-02-25T11:46:44.003Z,1.60
2019-02-25T11:47:44.260Z,1.60
2019-02-25T11:49:48.470Z,1.60
2019-02-25T11:50:48.727Z,1.60
2019-02-25T11:52:52.924Z,1.60
2019-02-25T11:53:53.185Z,1.60
2019-02-25T11:55:57.401Z,1.70
2019-02-25T11:56:57.659Z,1.70
2019-02-25T11:59:01.872Z,1.90
2019-02-25T12:00:02.132Z,1.90
2019-02-25T12:02:06.322Z,1.70
2019-02-25T12:03:06.586Z,1.60
2019-02-25T12:05:10.795Z,1.80
2019-02-25T12:06:11.047Z,1.70
2019-02-25T12:08:04.175Z,1.70
2019-02-25T12:09:04.442Z,1.50
2019-02-25T12:11:08.749Z,1.20
2019-02-25T12:12:08.911Z,1.20
2019-02-25T12:14:13.129Z,1.20
2019-02-25T12:15:13.388Z,1.40
2019-02-25T12:17:17.580Z,1.60
2019-02-25T12:18:17.839Z,1.60
2019-02-25T12:20:22.048Z,1.60
2019-02-25T12:21:22.307Z,1.50
2019-02-25T12:23:26.500Z,1.20
2019-02-25T12:24:26.756Z,1.00
2019-02-25T12:26:30.969Z,2.40
2019-02-25T12:27:31.229Z,2.70
2019-02-25T12:29:35.502Z,1.30
2019-02-25T12:30:35.697Z,1.40
2019-02-25T12:32:39.890Z,3.10
2019-02-25T12:33:40.145Z,2.10
2019-02-25T12:35:44.366Z,1.20
2019-02-25T12:36:44.628Z,1.50
2019-02-25T12:38:48.818Z,1.30
2019-02-25T12:39:49.076Z,1.20
2019-02-25T12:41:53.287Z,1.40
2019-02-25T12:42:53.547Z,1.80
2019-02-25T12:44:57.756Z,1.80
2019-02-25T12:45:58.014Z,1.60
2019-02-25T12:47:51.130Z,1.90
2019-02-25T12:48:51.397Z,1.80
2019-02-25T12:50:55.597Z,1.70
2019-02-25T12:51:55.856Z,1.70
2019-02-25T12:54:00.041Z,2.80
2019-02-25T12:55:00.344Z,2.90
2019-02-25T12:57:04.503Z,2.60
2019-02-25T12:58:04.761Z,4.40
2019-02-25T13:00:08.971Z,2.00
2019-02-25T13:01:09.227Z,2.00
2019-02-25T13:03:13.416Z,2.80
2019-02-25T13:04:13.671Z,2.00
2019-02-25T13:06:17.881Z,1.60
2019-02-25T13:07:18.141Z,1.80
2019-02-25T13:09:22.333Z,1.70
2019-02-25T13:10:22.589Z,1.90
2019-02-25T13:12:26.798Z,2.20
2019-02-25T13:13:27.055Z,2.20
2019-02-25T13:15:31.266Z,6.20
2019-02-25T13:16:31.521Z,5.40
2019-02-25T13:18:24.642Z,2.10
2019-02-25T13:19:24.898Z,2.00
2019-02-25T13:21:29.105Z,2.10
2019-02-25T13:22:29.365Z,2.20
2019-02-25T13:24:35.198Z,1.80
2019-02-25T13:25:33.809Z,1.80
2019-02-25T13:27:38.020Z,1.60
2019-02-25T13:28:38.279Z,2.00
2019-02-25T13:30:42.489Z,1.40
2019-02-25T13:31:42.747Z,1.70
2019-02-25T13:33:46.957Z,1.70
2019-02-25T13:34:47.216Z,1.40
2019-02-25T13:36:51.435Z,1.60
2019-02-25T13:37:51.691Z,1.60
2019-02-25T13:39:55.881Z,1.60
2019-02-25T13:40:56.140Z,1.80
2019-02-25T13:43:00.365Z,1.40
2019-02-25T13:44:00.633Z,1.70
2019-02-25T13:46:04.858Z,1.50
2019-02-25T13:47:05.107Z,1.50
2019-02-25T13:49:10.314Z,1.40
2019-02-25T13:50:10.573Z,1.60
2019-02-25T13:52:14.839Z,1.40
2019-02-25T13:53:15.088Z,1.50
2019-02-25T13:55:19.278Z,1.70
2019-02-25T13:56:19.585Z,1.50
2019-02-25T13:58:12.764Z,1.30
2019-02-25T13:59:13.062Z,1.90
2019-02-25T14:01:17.399Z,1.50
2019-02-25T14:02:17.677Z,1.50
2019-02-25T14:04:21.879Z,1.30
2019-02-25T14:05:22.171Z,1.50
2019-02-25T14:07:26.374Z,1.60
2019-02-25T14:08:26.664Z,1.50
2019-02-25T14:10:30.850Z,1.70
2019-02-25T14:11:31.103Z,1.70
2019-02-25T14:13:35.386Z,1.40
2019-02-25T14:14:35.675Z,1.80
2019-02-25T14:16:39.879Z,1.60
2019-02-25T14:17:40.208Z,1.40
2019-02-25T14:19:44.389Z,1.30
2019-02-25T14:20:44.691Z,1.30
2019-02-25T14:22:48.946Z,1.90
2019-02-25T14:23:49.195Z,2.00
2019-02-25T14:25:53.396Z,1.50
2019-02-25T14:26:54.541Z,1.70
2019-02-25T14:28:57.847Z,1.60
2019-02-25T14:29:58.100Z,1.40
2019-02-25T14:32:02.311Z,1.30
2019-02-25T14:33:02.647Z,1.40
2019-02-25T14:35:07.868Z,1.40
2019-02-25T14:36:07.126Z,1.40
2019-02-25T14:38:05.227Z,1.90
2019-02-25T14:39:02.246Z,1.70
2019-02-25T14:41:06.930Z,1.50
2019-02-25T14:42:06.788Z,1.70
2019-02-25T14:44:09.363Z,1.80
2019-02-25T14:45:09.675Z,1.80
2019-02-25T14:47:20.560Z,1.70
2019-02-25T14:48:18.159Z,1.60
2019-02-25T14:50:18.376Z,1.50
2019-02-25T14:51:18.615Z,1.20
2019-02-25T14:53:22.872Z,1.70
2019-02-25T14:54:24.510Z,1.70
2019-02-25T14:56:27.350Z,1.70
2019-02-25T14:57:28.832Z,1.60
2019-02-25T14:59:31.800Z,1.70
2019-02-25T15:00:35.017Z,1.80
2019-02-25T15:02:36.256Z,1.50
2019-02-25T15:03:36.509Z,1.60
2019-02-25T15:05:40.722Z,1.90
2019-02-25T15:06:40.992Z,1.80
2019-02-25T15:08:45.298Z,1.70
2019-02-25T15:09:45.795Z,1.80
2019-02-25T15:11:51.279Z,2.00
2019-02-25T15:12:53.925Z,2.00
2019-02-25T15:14:54.282Z,2.00
2019-02-25T15:15:54.534Z,2.40
2019-02-25T15:17:48.260Z,2.10
2019-02-25T15:18:47.968Z,1.80
2019-02-25T15:20:52.159Z,1.80
2019-02-25T15:21:54.200Z,1.90
2019-02-25T15:24:00.210Z,1.90
2019-02-25T15:24:57.101Z,2.00
2019-02-25T15:27:02.422Z,1.80
2019-02-25T15:28:01.386Z,2.00
2019-02-25T15:30:05.594Z,2.00
2019-02-25T15:31:06.958Z,1.70
2019-02-25T15:33:10.050Z,1.80
2019-02-25T15:34:10.980Z,2.00
2019-02-25T15:36:17.527Z,1.80
2019-02-25T15:37:14.745Z,1.90
2019-02-25T15:39:18.954Z,2.00
2019-02-25T15:40:21.025Z,2.10
2019-02-25T15:42:24.147Z,1.90
2019-02-25T15:43:25.451Z,1.80
2019-02-25T15:45:28.834Z,1.20
2019-02-25T15:46:28.874Z,1.20
2019-02-25T15:48:21.227Z,1.00
2019-02-25T15:49:22.290Z,1.00
2019-02-25T15:51:25.652Z,1.10
2019-02-25T15:52:27.567Z,1.10
2019-02-25T15:54:32.745Z,1.70
2019-02-25T15:55:30.357Z,1.70
2019-02-25T15:57:35.295Z,1.30
2019-02-25T15:58:34.786Z,1.80
2019-02-25T16:00:38.994Z,1.80
2019-02-25T16:01:39.241Z,1.70
2019-02-25T16:03:43.453Z,1.30
2019-02-25T16:04:43.700Z,1.30
2019-02-25T16:06:47.879Z,1.30
2019-02-25T16:07:49.735Z,1.20
2019-02-25T16:09:52.321Z,0.90
2019-02-25T16:10:53.396Z,1.00
2019-02-25T16:12:57.831Z,1.10
2019-02-25T16:13:57.968Z,1.20
2019-02-25T16:16:01.186Z,1.40
2019-02-25T16:17:01.436Z,1.10
2019-02-25T16:19:06.059Z,1.20
2019-02-25T16:20:06.743Z,1.40
2019-02-25T16:22:11.745Z,1.60
2019-02-25T16:23:10.337Z,1.50
2019-02-25T16:25:14.504Z,1.40
2019-02-25T16:26:16.045Z,1.30
2019-02-25T16:28:08.730Z,1.10
2019-02-25T16:29:09.104Z,1.20
2019-02-25T16:31:12.338Z,1.10
2019-02-25T16:32:12.534Z,1.10
2019-02-25T16:34:18.536Z,1.10
2019-02-25T16:35:17.271Z,1.00
2019-02-25T16:37:24.203Z,1.00
2019-02-25T16:38:24.849Z,1.00
2019-02-25T16:40:28.472Z,1.30
2019-02-25T16:41:29.922Z,1.20
2019-02-25T16:43:30.296Z,1.10
2019-02-25T16:44:30.539Z,1.40
2019-02-25T16:46:36.958Z,1.40
2019-02-25T16:47:37.539Z,1.70
2019-02-25T16:49:39.158Z,1.40
2019-02-25T16:50:41.545Z,1.40
2019-02-25T16:52:45.557Z,1.40
2019-02-25T16:53:45.349Z,1.30
2019-02-25T16:55:49.238Z,1.30
2019-02-25T16:56:48.244Z,1.10
2019-02-25T16:58:54.240Z,1.40
2019-02-25T16:59:53.750Z,1.30
2019-02-25T17:01:58.102Z,1.50
2019-02-25T17:02:59.304Z,1.30
2019-02-25T17:05:01.272Z,2.10
2019-02-25T17:06:02.432Z,1.90
2019-02-25T17:07:56.058Z,2.30
2019-02-25T17:08:55.685Z,2.10
2019-02-25T17:11:00.028Z,2.00
2019-02-25T17:12:00.101Z,1.90
2019-02-25T17:14:03.847Z,1.70
2019-02-25T17:15:03.672Z,1.50
2019-02-25T17:17:07.856Z,1.40
2019-02-25T17:18:08.102Z,1.70
2019-02-25T17:20:13.086Z,1.20
2019-02-25T17:21:12.515Z,1.20
2019-02-25T17:23:16.684Z,1.20
2019-02-25T17:24:16.920Z,1.00
2019-02-25T17:26:21.097Z,1.50
2019-02-25T17:27:21.341Z,1.30
2019-02-25T17:29:26.567Z,1.20
2019-02-25T17:30:25.743Z,1.10
2019-02-25T17:32:29.922Z,1.40
2019-02-25T17:33:30.927Z,1.40
2019-02-25T17:35:34.345Z,1.60
2019-02-25T17:36:34.587Z,1.60
2019-02-25T17:38:28.966Z,1.30
2019-02-25T17:39:29.484Z,0.90
2019-02-25T17:41:33.611Z,1.00
2019-02-25T17:42:33.589Z,1.10
2019-02-25T17:44:36.963Z,1.00
2019-02-25T17:45:38.576Z,0.90
2019-02-25T17:47:41.890Z,1.20
2019-02-25T17:48:41.149Z,1.50
2019-02-25T17:50:45.328Z,1.40
2019-02-25T17:51:45.587Z,1.60
2019-02-25T17:53:50.472Z,1.50
2019-02-25T17:54:49.972Z,1.30
2019-02-25T17:56:54.149Z,2.00
2019-02-25T17:57:56.366Z,1.90
2019-02-25T17:59:58.547Z,3.00
2019-02-25T18:01:00.629Z,2.90
2019-02-25T18:03:03.667Z,3.80
2019-02-25T18:04:04.487Z,4.10
2019-02-25T18:06:07.580Z,3.00
2019-02-25T18:07:07.654Z,3.60
2019-02-25T18:09:13.736Z,3.50
2019-02-25T18:10:12.048Z,2.80
2019-02-25T18:12:16.264Z,2.80
2019-02-25T18:13:16.507Z,2.40
2019-02-25T18:15:21.976Z,2.80
2019-02-25T18:16:20.901Z,4.10
2019-02-25T18:18:15.215Z,4.20
2019-02-25T18:19:15.816Z,3.80
2019-02-25T18:21:18.426Z,7.40
2019-02-25T18:22:18.663Z,7.00
2019-02-25T18:24:22.813Z,4.50
2019-02-25T18:25:23.053Z,5.40
2019-02-25T18:27:27.222Z,5.30
2019-02-25T18:28:27.459Z,6.00
2019-02-25T18:30:31.652Z,5.70
2019-02-25T18:31:31.883Z,5.60
2019-02-25T18:33:36.149Z,9.60
2019-02-25T18:34:37.062Z,12.40
2019-02-25T18:36:40.615Z,15.30
2019-02-25T18:37:41.852Z,13.30
2019-02-25T18:39:45.649Z,7.60
2019-02-25T18:40:46.226Z,6.00
2019-02-25T18:42:49.519Z,6.60
2019-02-25T18:43:51.322Z,5.70
2019-02-25T18:45:53.962Z,7.40
2019-02-25T18:46:54.227Z,10.80
2019-02-25T18:48:58.404Z,12.10
2019-02-25T18:49:59.275Z,12.00
2019-02-25T18:52:02.862Z,9.10
2019-02-25T18:53:03.110Z,10.30
2019-02-25T18:55:08.858Z,10.20
2019-02-25T18:56:09.601Z,10.20
2019-02-25T18:58:00.644Z,10.20
2019-02-25T18:59:08.782Z,10.70
2019-02-25T19:01:06.532Z,13.40
2019-02-25T19:02:05.792Z,11.00
2019-02-25T19:04:11.125Z,8.00
2019-02-25T19:05:13.674Z,8.00
2019-02-25T19:07:13.975Z,7.70
2019-02-25T19:08:14.914Z,7.70
2019-02-25T19:10:20.351Z,5.60
2019-02-25T19:11:19.055Z,6.10
2019-02-25T19:13:24.868Z,7.10
2019-02-25T19:14:24.117Z,7.90
2019-02-25T19:16:27.223Z,7.10
2019-02-25T19:17:28.118Z,7.80
2019-02-25T19:19:34.180Z,7.50
2019-02-25T19:20:31.867Z,7.50
2019-02-25T19:22:37.716Z,8.10
2019-02-25T19:23:37.748Z,7.40
2019-02-25T19:25:40.568Z,6.10
2019-02-25T19:26:42.399Z,6.60
2019-02-25T19:28:47.729Z,6.20
2019-02-25T19:29:45.553Z,5.40
2019-02-25T19:31:49.250Z,5.30
2019-02-25T19:32:49.488Z,5.40
2019-02-25T19:34:54.070Z,4.70
2019-02-25T19:35:54.476Z,4.40
2019-02-25T19:37:47.052Z,5.10
2019-02-25T19:38:48.619Z,5.30
2019-02-25T19:40:53.500Z,10.60
2019-02-25T19:41:53.470Z,6.40
2019-02-25T19:43:59.121Z,5.20
2019-02-25T19:44:56.890Z,5.30
2019-02-25T19:47:00.185Z,6.50
2019-02-25T19:48:02.284Z,7.10
2019-02-25T19:50:05.229Z,6.40
2019-02-25T19:51:06.230Z,6.80
2019-02-25T19:53:11.762Z,7.50
2019-02-25T19:54:09.857Z,7.10
2019-02-25T19:56:13.408Z,8.30
2019-02-25T19:57:14.044Z,7.50
2019-02-25T19:59:19.340Z,10.20
2019-02-25T20:00:22.047Z,7.00
2019-02-25T20:02:22.621Z,7.10
2019-02-25T20:03:22.435Z,6.50
2019-02-25T20:05:26.602Z,6.70
2019-02-25T20:06:28.047Z,6.30
2019-02-25T20:08:19.938Z,5.60
2019-02-25T20:09:20.173Z,6.10
2019-02-25T20:11:25.852Z,6.50
2019-02-25T20:12:24.565Z,6.30
2019-02-25T20:14:31.035Z,6.60
2019-02-25T20:15:28.977Z,6.50
2019-02-25T20:17:33.129Z,5.50